createdAt,value
2022-11-29T00:01:42.240Z,102066.19
2022-11-29T00:04:10.993Z,102087.41
2022-11-29T00:06:41.046Z,102123.09
2022-11-29T00:09:11.752Z,102107.38
2022-11-29T00:12:00.209Z,102101.69
2022-11-29T00:14:29.343Z,102123.03
2022-11-29T00:17:02.475Z,102121.31
2022-11-29T00:19:31.492Z,102116.41
2022-11-29T00:22:01.630Z,102113.63
2022-11-29T00:24:32.502Z,102107.91
2022-11-29T00:27:01.866Z,102108.91
2022-11-29T00:29:31.320Z,102107.28
2022-11-29T00:31:59.911Z,102071.16
2022-11-29T00:34:28.549Z,102085.00
2022-11-29T00:36:56.886Z,102072.06
2022-11-29T00:39:26.712Z,102082.19
2022-11-29T00:41:55.197Z,102116.25
2022-11-29T00:44:23.568Z,102087.44
2022-11-29T00:46:51.954Z,102062.31
2022-11-29T00:49:20.290Z,102097.69
2022-11-29T00:51:48.910Z,102095.78
2022-11-29T00:54:18.393Z,102099.47
2022-11-29T00:56:48.151Z,102101.47
2022-11-29T00:59:16.469Z,102084.81
2022-11-29T01:01:44.966Z,102099.31
2022-11-29T01:04:13.321Z,102097.28
2022-11-29T01:06:41.633Z,102101.22
2022-11-29T01:09:10.290Z,102091.97
2022-11-29T01:11:38.598Z,102062.38
2022-11-29T01:14:08.309Z,102102.25
2022-11-29T01:16:36.749Z,102079.19
2022-11-29T01:19:07.362Z,102092.59
2022-11-29T01:21:35.762Z,102069.50
2022-11-29T01:24:04.167Z,102065.56
2022-11-29T01:26:32.701Z,102094.59
2022-11-29T01:29:01.425Z,102096.59
2022-11-29T01:31:32.949Z,102095.94
2022-11-29T01:34:02.564Z,102063.31
2022-11-29T01:36:31.504Z,102085.66
2022-11-29T01:39:00.480Z,102082.53
2022-11-29T01:41:30.517Z,102084.28
2022-11-29T01:44:01.903Z,102098.41
2022-11-29T01:46:33.434Z,102061.19
2022-11-29T01:49:05.397Z,102023.47
2022-11-29T01:51:36.800Z,102066.53
2022-11-29T01:54:05.722Z,102101.84
2022-11-29T01:56:34.930Z,102098.19
2022-11-29T01:59:04.948Z,102075.97
2022-11-29T02:01:36.767Z,102095.94
2022-11-29T02:04:05.436Z,102104.44
2022-11-29T02:06:34.054Z,102101.56
2022-11-29T02:09:02.535Z,102092.13
2022-11-29T02:11:45.306Z,102102.94
2022-11-29T02:14:27.405Z,102055.44
2022-11-29T02:17:04.843Z,102110.94
2022-11-29T02:19:54.960Z,102103.97
2022-11-29T02:22:26.752Z,102111.06
2022-11-29T02:25:11.909Z,102111.06
2022-11-29T02:28:15.295Z,102111.06
2022-11-29T02:30:56.932Z,102107.03
2022-11-29T02:33:55.427Z,102081.66
2022-11-29T02:36:51.354Z,102108.91
2022-11-29T02:39:45.708Z,102093.38
2022-11-29T02:42:56.258Z,102110.28
2022-11-29T02:45:55.897Z,102109.38
2022-11-29T02:49:01.668Z,102114.50
2022-11-29T02:51:36.203Z,102116.03
2022-11-29T02:54:09.707Z,102072.31
2022-11-29T02:56:39.555Z,102117.19
2022-11-29T02:59:37.781Z,102072.88
2022-11-29T03:02:14.690Z,102111.09
2022-11-29T03:04:49.028Z,102115.13
2022-11-29T03:07:22.947Z,102083.75
2022-11-29T03:09:57.514Z,102110.13
2022-11-29T03:12:32.527Z,102087.56
2022-11-29T03:15:08.968Z,102106.22
2022-11-29T03:17:47.085Z,102110.94
2022-11-29T03:20:28.061Z,102091.94
2022-11-29T03:23:11.500Z,102062.72
2022-11-29T03:25:42.233Z,102116.69
2022-11-29T03:28:16.500Z,102119.44
2022-11-29T03:30:50.144Z,102107.88
2022-11-29T03:33:23.983Z,102114.66
2022-11-29T03:35:58.509Z,102122.81
2022-11-29T03:38:30.036Z,102113.09
2022-11-29T03:41:02.557Z,102124.81
2022-11-29T03:43:35.585Z,102123.94
2022-11-29T03:46:07.747Z,102072.09
2022-11-29T03:48:39.372Z,102121.41
2022-11-29T03:51:13.193Z,102130.56
2022-11-29T03:53:48.677Z,102084.44
2022-11-29T03:56:31.647Z,102127.56
2022-11-29T03:59:10.201Z,102134.13
2022-11-29T04:02:06.291Z,102129.19
2022-11-29T04:05:13.241Z,102137.28
2022-11-29T04:07:52.052Z,102102.47
2022-11-29T04:10:49.097Z,102078.34
2022-11-29T04:13:38.415Z,102139.47
2022-11-29T04:16:27.177Z,102141.16
2022-11-29T04:19:24.147Z,102108.56
2022-11-29T04:22:16.533Z,102159.25
2022-11-29T04:25:29.848Z,102155.72
2022-11-29T04:28:39.796Z,102140.09
2022-11-29T04:31:16.341Z,102149.34
2022-11-29T04:34:29.981Z,102121.50
2022-11-29T04:37:16.055Z,102121.41
2022-11-29T04:40:07.334Z,102156.41
2022-11-29T04:42:51.008Z,102142.72
2022-11-29T04:45:50.633Z,102149.97
2022-11-29T04:48:27.679Z,102155.47
2022-11-29T04:51:04.437Z,102164.97
2022-11-29T04:53:43.263Z,102167.06
2022-11-29T04:56:16.584Z,102172.16
2022-11-29T04:58:53.305Z,102171.44
2022-11-29T05:01:29.191Z,102146.03
2022-11-29T05:04:02.752Z,102186.56
2022-11-29T05:06:39.605Z,102122.19
2022-11-29T05:09:13.734Z,102193.28
2022-11-29T05:11:54.146Z,102200.91
2022-11-29T05:14:36.511Z,102182.81
2022-11-29T05:17:26.689Z,102193.50
2022-11-29T05:20:05.107Z,102199.25
2022-11-29T05:22:40.471Z,102191.66
2022-11-29T05:25:35.733Z,102188.13
2022-11-29T05:28:10.337Z,102205.84
2022-11-29T05:31:12.784Z,102150.00
2022-11-29T05:33:56.503Z,102199.75
2022-11-29T05:36:34.039Z,102209.41
2022-11-29T05:39:24.380Z,102201.56
2022-11-29T05:42:09.217Z,102183.91
2022-11-29T05:44:40.353Z,102183.56
2022-11-29T05:47:11.317Z,102161.19
2022-11-29T05:49:44.344Z,102204.78
2022-11-29T05:52:26.986Z,102199.88
2022-11-29T05:55:04.281Z,102215.63
2022-11-29T05:57:38.851Z,102182.66
2022-11-29T06:00:10.743Z,102211.34
2022-11-29T06:03:09.331Z,102125.53
2022-11-29T06:05:38.269Z,102219.81
2022-11-29T06:08:09.966Z,102220.84
2022-11-29T06:10:40.099Z,102218.78
2022-11-29T06:13:16.749Z,102216.56
2022-11-29T06:16:19.577Z,102189.41
2022-11-29T06:19:31.351Z,102218.91
2022-11-29T06:22:11.420Z,102161.19
2022-11-29T06:24:50.623Z,102223.56
2022-11-29T06:27:39.986Z,102225.31
2022-11-29T06:30:11.037Z,102198.75
2022-11-29T06:32:46.629Z,102209.75
2022-11-29T06:35:33.045Z,102238.81
2022-11-29T06:38:04.676Z,102233.28
2022-11-29T06:40:33.510Z,102243.38
2022-11-29T06:43:02.276Z,102219.75
2022-11-29T06:45:31.178Z,102240.94
2022-11-29T06:48:02.795Z,102236.88
2022-11-29T06:50:40.939Z,102244.03
2022-11-29T06:53:16.413Z,102217.16
2022-11-29T06:55:52.317Z,102250.72
2022-11-29T06:58:36.359Z,102253.53
2022-11-29T07:01:13.214Z,102245.97
2022-11-29T07:04:00.637Z,102230.34
2022-11-29T07:06:31.056Z,102255.75
2022-11-29T07:09:03.139Z,102233.28
2022-11-29T07:11:32.013Z,102240.81
2022-11-29T07:14:00.826Z,102259.84
2022-11-29T07:16:33.069Z,102229.84
2022-11-29T07:19:06.490Z,102250.75
2022-11-29T07:21:47.645Z,102258.72
2022-11-29T07:24:25.835Z,102260.44
2022-11-29T07:26:59.817Z,102240.28
2022-11-29T07:29:35.336Z,102235.06
2022-11-29T07:32:10.336Z,102235.38
2022-11-29T07:34:45.198Z,102245.03
2022-11-29T07:37:24.725Z,102264.81
2022-11-29T07:40:00.227Z,102264.81
2022-11-29T07:42:33.112Z,102233.16
2022-11-29T07:45:08.985Z,102267.06
2022-11-29T07:47:37.307Z,102266.34
2022-11-29T07:50:06.333Z,102247.09
2022-11-29T07:52:36.163Z,102271.75
2022-11-29T07:55:05.191Z,102277.88
2022-11-29T07:57:33.584Z,102280.53
2022-11-29T08:00:01.939Z,102277.28
2022-11-29T08:02:40.261Z,102281.88
2022-11-29T08:05:09.846Z,102277.13
2022-11-29T08:07:41.006Z,102252.19
2022-11-29T08:10:11.871Z,102274.38
2022-11-29T08:12:43.958Z,102273.63
2022-11-29T08:15:12.852Z,102251.19
2022-11-29T08:17:41.413Z,102261.69
2022-11-29T08:20:10.957Z,102276.81
2022-11-29T08:22:40.793Z,102264.66
2022-11-29T08:25:10.424Z,102264.03
2022-11-29T08:27:39.434Z,102195.25
2022-11-29T08:30:09.202Z,102275.13
2022-11-29T08:32:37.720Z,102273.38
2022-11-29T08:35:06.521Z,102269.06
2022-11-29T08:37:34.905Z,102238.09
2022-11-29T08:40:04.971Z,102267.59
2022-11-29T08:42:33.274Z,102268.88
2022-11-29T08:45:01.564Z,102268.47
2022-11-29T08:47:38.314Z,102264.50
2022-11-29T08:50:10.306Z,102215.09
2022-11-29T08:52:58.382Z,102247.22
2022-11-29T08:55:29.627Z,102256.84
2022-11-29T08:58:03.087Z,102262.91
2022-11-29T09:00:33.830Z,102259.81
2022-11-29T09:03:17.306Z,102274.16
2022-11-29T09:05:45.730Z,102271.41
2022-11-29T09:08:14.129Z,102269.66
2022-11-29T09:10:44.289Z,102272.50
2022-11-29T09:13:13.323Z,102260.31
2022-11-29T09:15:43.687Z,102279.09
2022-11-29T09:18:12.344Z,102279.56
2022-11-29T09:20:43.500Z,102277.31
2022-11-29T09:23:12.905Z,102276.16
2022-11-29T09:25:41.230Z,102256.00
2022-11-29T09:28:12.714Z,102282.81
2022-11-29T09:30:41.050Z,102278.19
2022-11-29T09:33:09.412Z,102218.19
2022-11-29T09:35:37.936Z,102263.50
2022-11-29T09:38:06.288Z,102259.03
2022-11-29T09:40:39.417Z,102265.75
2022-11-29T09:43:15.568Z,102254.16
2022-11-29T09:45:46.622Z,102259.03
2022-11-29T09:48:31.095Z,102166.41
2022-11-29T09:51:07.764Z,102259.84
2022-11-29T09:53:56.148Z,102246.09
2022-11-29T09:56:30.007Z,102261.31
2022-11-29T09:59:02.500Z,102261.88
2022-11-29T10:01:33.387Z,102258.38
2022-11-29T10:04:05.308Z,102256.25
2022-11-29T10:06:38.975Z,102248.09
2022-11-29T10:09:09.598Z,102251.13
2022-11-29T10:11:40.136Z,102253.97
2022-11-29T10:14:14.631Z,102245.44
2022-11-29T10:16:46.176Z,102246.13
2022-11-29T10:19:19.879Z,102242.41
2022-11-29T10:21:57.333Z,102237.88
2022-11-29T10:24:27.005Z,102235.69
2022-11-29T10:26:55.517Z,102244.41
2022-11-29T10:29:25.464Z,102241.19
2022-11-29T10:31:56.901Z,102231.94
2022-11-29T10:34:27.136Z,102246.25
2022-11-29T10:36:59.597Z,102252.06
2022-11-29T10:39:32.389Z,102256.94
2022-11-29T10:42:03.154Z,102250.44
2022-11-29T10:44:33.682Z,102237.13
2022-11-29T10:47:07.849Z,102254.53
2022-11-29T10:49:40.333Z,102247.06
2022-11-29T10:52:18.127Z,102254.53
2022-11-29T10:54:48.149Z,102226.44
2022-11-29T10:57:19.022Z,102249.28
2022-11-29T11:00:02.256Z,102203.09
2022-11-29T11:02:33.609Z,102250.94
2022-11-29T11:05:03.029Z,102252.09
2022-11-29T11:07:35.784Z,102251.22
2022-11-29T11:10:08.207Z,102234.28
2022-11-29T11:12:37.141Z,102234.47
2022-11-29T11:15:26.181Z,102233.41
2022-11-29T11:17:59.640Z,102205.44
2022-11-29T11:20:29.674Z,102254.44
2022-11-29T11:23:00.387Z,102248.50
2022-11-29T11:25:31.939Z,102240.06
2022-11-29T11:28:13.794Z,102239.75
2022-11-29T11:30:51.148Z,102243.31
2022-11-29T11:33:21.432Z,102247.13
2022-11-29T11:36:04.517Z,102231.19
2022-11-29T11:38:33.433Z,102242.78
2022-11-29T11:41:20.697Z,102249.00
2022-11-29T11:43:57.320Z,102214.56
2022-11-29T11:46:47.233Z,102198.47
2022-11-29T11:49:15.848Z,102243.91
2022-11-29T11:51:45.157Z,102230.34
2022-11-29T11:54:15.509Z,102234.72
2022-11-29T11:56:44.718Z,102246.13
2022-11-29T11:59:18.694Z,102238.78
2022-11-29T12:01:50.893Z,102240.41
2022-11-29T12:04:21.856Z,102255.59
2022-11-29T12:06:54.105Z,102260.66
2022-11-29T12:09:34.290Z,102261.09
2022-11-29T12:12:10.088Z,102267.78
2022-11-29T12:14:44.818Z,102266.19
2022-11-29T12:17:20.382Z,102223.66
2022-11-29T12:20:00.504Z,102262.31
2022-11-29T12:22:36.738Z,102269.72
2022-11-29T12:25:07.699Z,102272.72
2022-11-29T12:27:36.076Z,102274.19
2022-11-29T12:30:12.443Z,102240.63
2022-11-29T12:32:57.924Z,102276.72
2022-11-29T12:35:35.545Z,102245.66
2022-11-29T12:38:12.101Z,102277.63
2022-11-29T12:40:45.849Z,102279.84
2022-11-29T12:43:22.060Z,102280.75
2022-11-29T12:45:55.200Z,102282.69
2022-11-29T12:48:31.337Z,102279.25
2022-11-29T12:51:06.547Z,102279.56
2022-11-29T12:53:52.194Z,102290.41
2022-11-29T12:56:28.145Z,102280.16
2022-11-29T12:59:07.478Z,102280.31
2022-11-29T13:01:45.238Z,102266.47
2022-11-29T13:04:21.305Z,102281.50
2022-11-29T13:06:54.117Z,102285.63
2022-11-29T13:09:54.030Z,102278.06
2022-11-29T13:12:27.332Z,102279.97
2022-11-29T13:15:00.275Z,102266.91
2022-11-29T13:17:34.347Z,102278.03
2022-11-29T13:20:17.387Z,102246.97
2022-11-29T13:22:48.245Z,102233.47
2022-11-29T13:25:20.144Z,102245.91
2022-11-29T13:27:55.157Z,102195.84
2022-11-29T13:30:23.540Z,102272.38
2022-11-29T13:32:58.054Z,102249.97
2022-11-29T13:35:33.815Z,102250.09
2022-11-29T13:38:08.463Z,102271.97
2022-11-29T13:40:39.238Z,102263.06
2022-11-29T13:43:17.139Z,102271.66
2022-11-29T13:45:50.603Z,102266.59
2022-11-29T13:48:35.398Z,102239.53
2022-11-29T13:51:30.015Z,102251.28
2022-11-29T13:53:59.955Z,102280.28
2022-11-29T13:56:36.755Z,102256.50
2022-11-29T13:59:10.494Z,102275.38
2022-11-29T14:01:47.584Z,102274.75
2022-11-29T14:04:30.762Z,102272.81
2022-11-29T14:07:09.998Z,102278.41
2022-11-29T14:09:53.262Z,102261.88
2022-11-29T14:12:37.182Z,102286.22
2022-11-29T14:15:18.373Z,102272.41
2022-11-29T14:17:57.999Z,102270.72
2022-11-29T14:20:56.648Z,102279.63
2022-11-29T14:23:43.263Z,102274.97
2022-11-29T14:26:28.498Z,102227.50
2022-11-29T14:28:58.179Z,102278.25
2022-11-29T14:31:54.956Z,102275.25
2022-11-29T14:34:42.940Z,102235.97
2022-11-29T14:37:42.361Z,102277.44
2022-11-29T14:40:22.535Z,102279.97
2022-11-29T14:42:52.857Z,102279.22
2022-11-29T14:45:32.294Z,102223.56
2022-11-29T14:48:04.063Z,102275.97
2022-11-29T14:50:35.704Z,102285.47
2022-11-29T14:53:05.054Z,102281.03
2022-11-29T14:55:37.546Z,102285.63
2022-11-29T14:58:16.516Z,102281.66
2022-11-29T15:01:10.394Z,102243.25
2022-11-29T15:03:45.457Z,102213.19
2022-11-29T15:06:19.797Z,102284.13
2022-11-29T15:08:55.902Z,102286.16
2022-11-29T15:11:44.762Z,102297.75
2022-11-29T15:14:19.576Z,102228.25
2022-11-29T15:17:15.369Z,102291.50
2022-11-29T15:20:14.446Z,102277.78
2022-11-29T15:22:48.212Z,102261.72
2022-11-29T15:25:19.048Z,102244.03
2022-11-29T15:27:55.880Z,102265.25
2022-11-29T15:30:33.075Z,102268.84
2022-11-29T15:33:02.716Z,102289.38
2022-11-29T15:35:31.367Z,102275.41
2022-11-29T15:37:59.735Z,102277.34
2022-11-29T15:40:35.699Z,102227.34
2022-11-29T15:43:16.258Z,102283.44
2022-11-29T15:45:48.440Z,102231.34
2022-11-29T15:48:20.257Z,102288.16
2022-11-29T15:50:56.331Z,102254.81
2022-11-29T15:53:27.213Z,102284.22
2022-11-29T15:55:58.499Z,102269.53
2022-11-29T15:58:29.447Z,102276.59
2022-11-29T16:00:59.224Z,102219.94
2022-11-29T16:03:30.129Z,102274.16
2022-11-29T16:06:03.467Z,102275.81
2022-11-29T16:08:35.654Z,102144.66
2022-11-29T16:11:03.996Z,102265.50
2022-11-29T16:13:39.390Z,102258.69
2022-11-29T16:16:11.673Z,102268.91
2022-11-29T16:18:42.214Z,102258.78
2022-11-29T16:21:25.557Z,102272.16
2022-11-29T16:23:54.722Z,102232.16
2022-11-29T16:26:25.496Z,102282.31
2022-11-29T16:28:56.431Z,102292.00
2022-11-29T16:31:26.360Z,102294.50
2022-11-29T16:33:54.722Z,102287.97
2022-11-29T16:36:25.044Z,102287.09
2022-11-29T16:38:55.322Z,102286.38
2022-11-29T16:41:26.849Z,102288.16
2022-11-29T16:43:58.116Z,102281.19
2022-11-29T16:46:35.154Z,102288.75
2022-11-29T16:49:21.013Z,102202.75
2022-11-29T16:51:49.533Z,102262.41
2022-11-29T16:54:23.765Z,102284.81
2022-11-29T16:56:53.141Z,102279.97
2022-11-29T16:59:27.448Z,102277.75
2022-11-29T17:01:57.439Z,102285.31
2022-11-29T17:04:26.118Z,102266.88
2022-11-29T17:06:56.002Z,102259.97
2022-11-29T17:09:26.969Z,102227.19
2022-11-29T17:11:55.847Z,102236.47
2022-11-29T17:14:25.859Z,102199.28
2022-11-29T17:16:54.499Z,102282.88
2022-11-29T17:19:24.013Z,102282.00
2022-11-29T17:21:53.015Z,102238.81
2022-11-29T17:24:24.562Z,102272.66
2022-11-29T17:26:53.219Z,102253.16
2022-11-29T17:29:21.700Z,102274.44
2022-11-29T17:31:53.383Z,102270.41
2022-11-29T17:34:22.026Z,102283.78
2022-11-29T17:36:51.028Z,102276.22
2022-11-29T17:39:20.364Z,102275.44
2022-11-29T17:41:48.972Z,102278.16
2022-11-29T17:44:17.402Z,102263.81
2022-11-29T17:46:45.775Z,102272.78
2022-11-29T17:49:15.658Z,102237.81
2022-11-29T17:51:52.781Z,102259.03
2022-11-29T17:54:22.408Z,102249.34
2022-11-29T17:56:51.224Z,102257.09
2022-11-29T17:59:19.741Z,102230.78
2022-11-29T18:01:48.379Z,102289.13
2022-11-29T18:04:19.614Z,102288.41
2022-11-29T18:06:50.435Z,102301.56
2022-11-29T18:09:19.953Z,102290.78
2022-11-29T18:11:50.299Z,102294.75
2022-11-29T18:14:20.984Z,102257.81
2022-11-29T18:16:49.667Z,102292.06
2022-11-29T18:19:21.408Z,102287.75
2022-11-29T18:21:51.072Z,102230.84
2022-11-29T18:24:19.615Z,102227.13
2022-11-29T18:26:47.987Z,102291.19
2022-11-29T18:29:16.656Z,102247.75
2022-11-29T18:31:48.282Z,102273.94
2022-11-29T18:34:16.845Z,102269.47
2022-11-29T18:36:49.079Z,102290.91
2022-11-29T18:39:19.181Z,102277.03
2022-11-29T18:41:48.917Z,102291.81
2022-11-29T18:44:19.116Z,102220.38
2022-11-29T18:46:48.028Z,102292.72
2022-11-29T18:49:20.717Z,102291.50
2022-11-29T18:51:51.777Z,102294.91
2022-11-29T18:54:21.538Z,102290.78
2022-11-29T18:56:51.442Z,102294.50
2022-11-29T18:59:20.226Z,102287.09
2022-11-29T19:01:49.375Z,102253.00
2022-11-29T19:04:19.660Z,102229.38
2022-11-29T19:06:48.570Z,102280.84
2022-11-29T19:09:21.148Z,102279.22
2022-11-29T19:11:50.771Z,102279.97
2022-11-29T19:14:20.023Z,102261.34
2022-11-29T19:16:49.848Z,102280.84
2022-11-29T19:19:19.114Z,102290.91
2022-11-29T19:21:47.833Z,102291.66
2022-11-29T19:24:18.620Z,102243.59
2022-11-29T19:26:50.081Z,102254.16
2022-11-29T19:29:18.920Z,102289.13
2022-11-29T19:31:47.793Z,102290.03
2022-11-29T19:34:16.286Z,102200.16
2022-11-29T19:36:45.583Z,102292.72
2022-11-29T19:39:15.410Z,102298.81
2022-11-29T19:41:46.751Z,102234.50
2022-11-29T19:44:15.597Z,102295.53
2022-11-29T19:46:48.441Z,102262.34
2022-11-29T19:49:17.241Z,102293.13
2022-11-29T19:51:59.405Z,102282.41
2022-11-29T19:54:28.010Z,102256.09
2022-11-29T19:56:58.849Z,102300.75
2022-11-29T19:59:27.472Z,102308.31
2022-11-29T20:01:55.920Z,102310.09
2022-11-29T20:04:24.446Z,102299.13
2022-11-29T20:06:54.649Z,102307.41
2022-11-29T20:09:23.453Z,102259.34
2022-11-29T20:11:51.822Z,102302.38
2022-11-29T20:14:21.703Z,102298.97
2022-11-29T20:16:50.334Z,102277.38
2022-11-29T20:19:19.186Z,102250.56
2022-11-29T20:21:48.999Z,102297.25
2022-11-29T20:24:18.092Z,102272.22
2022-11-29T20:26:48.082Z,102268.66
2022-11-29T20:29:17.556Z,102295.94
2022-11-29T20:31:50.585Z,102305.88
2022-11-29T20:34:21.837Z,102221.50
2022-11-29T20:37:36.021Z,102304.56
2022-11-29T20:40:07.696Z,102243.72
2022-11-29T20:43:05.031Z,102295.66
2022-11-29T20:45:33.984Z,102281.25
2022-11-29T20:48:05.872Z,102274.66
2022-11-29T20:50:34.744Z,102276.94
2022-11-29T20:53:16.937Z,102297.16
2022-11-29T20:55:48.228Z,102298.03
2022-11-29T20:58:17.840Z,102238.19
2022-11-29T21:00:46.370Z,102301.47
2022-11-29T21:03:20.487Z,102219.78
2022-11-29T21:05:49.476Z,102251.44
2022-11-29T21:08:21.006Z,102295.66
2022-11-29T21:10:49.829Z,102285.84
2022-11-29T21:13:19.320Z,102281.81
2022-11-29T21:15:48.639Z,102304.72
2022-11-29T21:18:25.038Z,102264.66
2022-11-29T21:21:03.357Z,102277.44
2022-11-29T21:23:44.006Z,102303.34
2022-11-29T21:26:16.907Z,102307.53
2022-11-29T21:28:57.251Z,102318.34
2022-11-29T21:31:26.226Z,102308.09
2022-11-29T21:33:56.643Z,102322.34
2022-11-29T21:36:25.020Z,102273.13
2022-11-29T21:38:55.198Z,102318.34
2022-11-29T21:41:23.992Z,102316.00
2022-11-29T21:44:06.544Z,102292.06
2022-11-29T21:46:36.772Z,102295.44
2022-11-29T21:49:06.865Z,102310.78
2022-11-29T21:51:35.243Z,102264.50
2022-11-29T21:54:03.641Z,102304.88
2022-11-29T21:56:32.032Z,102305.59
2022-11-29T21:59:00.377Z,102317.31
2022-11-29T22:01:29.570Z,102312.28
2022-11-29T22:03:58.216Z,102303.00
2022-11-29T22:06:29.525Z,102292.00
2022-11-29T22:09:00.029Z,102320.22
2022-11-29T22:11:35.554Z,102276.16
2022-11-29T22:14:18.418Z,102302.06
2022-11-29T22:16:49.092Z,102289.41
2022-11-29T22:19:18.508Z,102313.03
2022-11-29T22:21:49.929Z,102288.91
2022-11-29T22:24:20.103Z,102313.19
2022-11-29T22:26:49.517Z,102282.66
2022-11-29T22:29:18.156Z,102304.81
2022-11-29T22:31:49.324Z,102314.38
2022-11-29T22:34:18.070Z,102281.00
2022-11-29T22:36:47.942Z,102312.59
2022-11-29T22:39:16.426Z,102256.75
2022-11-29T22:41:47.038Z,102310.09
2022-11-29T22:44:19.062Z,102318.41
2022-11-29T22:46:47.370Z,102320.91
2022-11-29T22:49:15.964Z,102320.34
2022-11-29T22:51:44.333Z,102302.31
2022-11-29T22:54:15.529Z,102311.97
2022-11-29T22:56:44.686Z,102324.16
2022-11-29T22:59:13.067Z,102314.31
2022-11-29T23:01:42.941Z,102323.09
2022-11-29T23:04:12.662Z,102319.50
2022-11-29T23:06:42.905Z,102322.78
2022-11-29T23:09:16.312Z,102327.50
2022-11-29T23:11:46.385Z,102326.63
2022-11-29T23:14:14.879Z,102302.97
2022-11-29T23:16:44.030Z,102288.84
2022-11-29T23:19:12.661Z,102322.78
2022-11-29T23:21:45.680Z,102287.31
2022-11-29T23:24:16.071Z,102314.59
2022-11-29T23:26:46.091Z,102326.63
2022-11-29T23:29:15.946Z,102326.47
2022-11-29T23:31:44.647Z,102319.44
2022-11-29T23:34:13.001Z,102304.25
2022-11-29T23:36:41.674Z,102324.09
2022-11-29T23:39:10.467Z,102320.66
2022-11-29T23:41:40.239Z,102242.22
2022-11-29T23:44:09.428Z,102312.47
2022-11-29T23:46:37.995Z,102299.06
2022-11-29T23:49:06.343Z,102320.22
2022-11-29T23:51:34.642Z,102312.66
2022-11-29T23:54:02.986Z,102317.50
2022-11-29T23:56:35.469Z,102322.53
2022-11-29T23:59:05.589Z,102294.75
